createdAt,value
2022-08-08T00:00:52.783Z,14.52
2022-08-08T00:02:42.929Z,13.50
2022-08-08T00:05:19.142Z,14.77
2022-08-08T00:07:54.117Z,14.25
2022-08-08T00:10:31.234Z,14.20
2022-08-08T00:13:10.245Z,14.93
2022-08-08T00:15:56.658Z,14.65
2022-08-08T00:18:36.343Z,15.20
2022-08-08T00:21:07.899Z,15.13
2022-08-08T00:23:47.662Z,14.90
2022-08-08T00:26:29.759Z,15.40
2022-08-08T00:29:05.965Z,16.60
2022-08-08T00:32:16.382Z,16.00
2022-08-08T00:35:04.200Z,16.07
2022-08-08T00:37:48.015Z,15.00
2022-08-08T00:41:11.271Z,16.17
2022-08-08T00:44:01.550Z,15.73
2022-08-08T00:47:04.353Z,16.07
2022-08-08T00:50:27.102Z,15.87
2022-08-08T00:53:06.700Z,15.60
2022-08-08T00:56:20.761Z,16.17
2022-08-08T00:59:44.183Z,16.00
2022-08-08T01:03:59.768Z,15.43
2022-08-08T01:06:00.944Z,14.53
2022-08-08T01:09:00.491Z,14.87
2022-08-08T01:12:29.761Z,15.23
2022-08-08T01:15:43.815Z,14.37
2022-08-08T01:18:53.815Z,14.37
2022-08-08T01:22:12.433Z,15.07
2022-08-08T01:25:08.482Z,15.43
2022-08-08T01:28:02.278Z,14.30
2022-08-08T01:31:06.046Z,12.63
2022-08-08T01:34:20.407Z,12.37
2022-08-08T01:37:22.007Z,11.93
2022-08-08T01:40:23.356Z,11.27
2022-08-08T01:42:59.587Z,13.50
2022-08-08T01:45:56.466Z,11.30
2022-08-08T01:48:51.271Z,10.73
2022-08-08T01:52:42.760Z,12.33
2022-08-08T01:55:45.099Z,12.13
2022-08-08T01:58:04.470Z,12.73
2022-08-08T02:00:44.449Z,11.97
2022-08-08T02:03:55.433Z,12.07
2022-08-08T02:06:43.530Z,13.37
2022-08-08T02:10:01.836Z,12.80
2022-08-08T02:12:25.395Z,12.93
2022-08-08T02:15:05.273Z,12.33
2022-08-08T02:17:46.922Z,13.50
2022-08-08T02:21:01.900Z,14.07
2022-08-08T02:23:31.920Z,13.27
2022-08-08T02:26:10.166Z,13.50
2022-08-08T02:28:51.716Z,13.60
2022-08-08T02:31:59.051Z,13.63
2022-08-08T02:35:08.336Z,13.30
2022-08-08T02:37:51.857Z,13.83
2022-08-08T02:40:39.211Z,15.07
2022-08-08T02:44:38.976Z,14.10
2022-08-08T02:46:50.681Z,14.20
2022-08-08T02:49:51.690Z,14.43
2022-08-08T02:52:42.673Z,15.83
2022-08-08T02:55:59.698Z,14.97
2022-08-08T02:59:17.431Z,13.83
2022-08-08T03:02:40.341Z,14.63
2022-08-08T03:06:03.138Z,14.17
2022-08-08T03:09:28.650Z,13.70
2022-08-08T03:13:01.461Z,13.90
2022-08-08T03:15:57.189Z,13.40
2022-08-08T03:18:37.614Z,13.57
2022-08-08T03:21:10.090Z,14.40
2022-08-08T03:23:59.601Z,14.13
2022-08-08T03:26:42.551Z,14.90
2022-08-08T03:29:17.177Z,13.53
2022-08-08T03:32:12.843Z,14.67
2022-08-08T03:34:42.269Z,17.23
2022-08-08T03:37:59.084Z,15.17
2022-08-08T03:40:03.717Z,14.43
2022-08-08T03:42:32.021Z,14.30
2022-08-08T03:44:59.938Z,13.33
2022-08-08T03:47:45.265Z,13.63
2022-08-08T03:50:19.673Z,14.03
2022-08-08T03:52:48.723Z,14.53
2022-08-08T03:55:56.202Z,15.37
2022-08-08T03:58:08.784Z,14.03
2022-08-08T04:01:23.649Z,14.50
2022-08-08T04:03:57.418Z,14.30
2022-08-08T04:06:29.213Z,14.50
2022-08-08T04:08:58.348Z,14.60
2022-08-08T04:11:57.830Z,14.50
2022-08-08T04:14:35.784Z,16.17
2022-08-08T04:17:06.760Z,14.67
2022-08-08T04:19:43.237Z,16.00
2022-08-08T04:22:11.105Z,16.40
2022-08-08T04:24:41.585Z,15.50
2022-08-08T04:27:42.676Z,14.97
2022-08-08T04:30:17.083Z,16.00
2022-08-08T04:32:48.153Z,15.40
2022-08-08T04:35:20.157Z,15.70
2022-08-08T04:37:50.578Z,14.83
2022-08-08T04:40:19.094Z,14.23
2022-08-08T04:42:56.929Z,15.20
2022-08-08T04:45:26.163Z,16.07
2022-08-08T04:47:54.414Z,15.20
2022-08-08T04:50:25.355Z,15.57
2022-08-08T04:52:58.656Z,15.52
2022-08-08T04:55:47.077Z,16.48
2022-08-08T04:58:22.614Z,15.25
2022-08-08T05:00:51.909Z,16.33
2022-08-08T05:04:11.519Z,16.98
2022-08-08T05:06:13.235Z,17.15
2022-08-08T05:08:51.825Z,18.25
2022-08-08T05:11:23.836Z,15.85
2022-08-08T05:13:58.494Z,16.63
2022-08-08T05:16:52.756Z,18.48
2022-08-08T05:20:11.422Z,17.80
2022-08-08T05:22:06.221Z,16.42
2022-08-08T05:24:34.921Z,19.92
2022-08-08T05:27:06.075Z,16.95
2022-08-08T05:29:36.777Z,17.73
2022-08-08T05:32:07.555Z,18.83
2022-08-08T05:34:38.160Z,20.17
2022-08-08T05:37:15.963Z,18.40
2022-08-08T05:39:51.145Z,21.05
2022-08-08T05:42:25.724Z,19.35
2022-08-08T05:45:00.461Z,19.52
2022-08-08T05:47:29.887Z,17.95
2022-08-08T05:50:11.562Z,21.27
2022-08-08T05:52:40.751Z,18.73
2022-08-08T05:55:10.710Z,17.80
2022-08-08T05:58:04.169Z,18.05
2022-08-08T06:00:34.020Z,17.67
2022-08-08T06:03:24.617Z,17.08
2022-08-08T06:05:56.628Z,16.65
2022-08-08T06:08:34.925Z,16.35
2022-08-08T06:11:04.432Z,16.23
2022-08-08T06:13:36.385Z,15.18
2022-08-08T06:16:19.216Z,14.90
2022-08-08T06:18:54.711Z,14.45
2022-08-08T06:21:32.467Z,16.73
2022-08-08T06:24:14.085Z,13.90
2022-08-08T06:26:57.825Z,13.82
2022-08-08T06:29:59.476Z,13.00
2022-08-08T06:32:31.037Z,12.55
2022-08-08T06:36:04.159Z,13.40
2022-08-08T06:37:56.113Z,13.18
2022-08-08T06:40:27.325Z,13.43
2022-08-08T06:42:56.737Z,14.27
2022-08-08T06:45:25.131Z,12.38
2022-08-08T06:48:01.515Z,12.68
2022-08-08T06:50:33.688Z,13.98
2022-08-08T06:53:09.903Z,11.80
2022-08-08T06:55:43.217Z,12.95
2022-08-08T06:58:11.658Z,12.63
2022-08-08T07:00:41.269Z,14.82
2022-08-08T07:03:51.684Z,13.15
2022-08-08T07:06:10.797Z,12.20
2022-08-08T07:08:40.488Z,12.45
2022-08-08T07:11:22.249Z,13.50
2022-08-08T07:14:00.350Z,13.10
2022-08-08T07:16:41.165Z,12.05
2022-08-08T07:19:32.834Z,10.73
2022-08-08T07:22:11.867Z,11.40
2022-08-08T07:24:53.744Z,11.50
2022-08-08T07:27:35.567Z,11.45
2022-08-08T07:30:21.231Z,11.32
2022-08-08T07:32:54.925Z,12.00
2022-08-08T07:35:31.018Z,9.90
2022-08-08T07:38:09.704Z,9.43
2022-08-08T07:40:48.389Z,10.98
2022-08-08T07:43:35.119Z,8.20
2022-08-08T07:46:24.181Z,8.02
2022-08-08T07:48:54.015Z,7.60
2022-08-08T07:51:44.955Z,8.63
2022-08-08T07:54:27.342Z,8.68
2022-08-08T07:57:02.940Z,9.27
2022-08-08T07:59:37.559Z,8.50
2022-08-08T08:02:35.398Z,9.45
2022-08-08T08:05:03.616Z,8.48
2022-08-08T08:07:38.669Z,8.82
2022-08-08T08:10:12.609Z,7.90
2022-08-08T08:12:46.048Z,7.85
2022-08-08T08:15:21.753Z,8.07
2022-08-08T08:17:56.081Z,7.78
2022-08-08T08:20:30.281Z,8.20
2022-08-08T08:23:00.071Z,8.60
2022-08-08T08:25:42.504Z,8.70
2022-08-08T08:28:21.462Z,7.60
2022-08-08T08:30:53.069Z,8.02
2022-08-08T08:33:21.349Z,10.07
2022-08-08T08:36:18.629Z,8.18
2022-08-08T08:38:49.544Z,7.38
2022-08-08T08:41:20.148Z,6.82
2022-08-08T08:43:52.118Z,6.60
2022-08-08T08:46:25.951Z,7.22
2022-08-08T08:48:56.166Z,8.23
2022-08-08T08:51:27.932Z,9.30
2022-08-08T08:54:02.138Z,8.82
2022-08-08T08:56:32.892Z,6.47
2022-08-08T08:59:03.765Z,7.10
2022-08-08T09:01:35.987Z,6.60
2022-08-08T09:04:31.018Z,6.43
2022-08-08T09:07:00.244Z,7.32
2022-08-08T09:09:39.323Z,7.55
2022-08-08T09:12:19.903Z,6.70
2022-08-08T09:14:50.046Z,10.13
2022-08-08T09:17:31.712Z,7.03
2022-08-08T09:21:57.485Z,7.22
2022-08-08T09:22:58.850Z,6.07
2022-08-08T09:25:35.598Z,5.20
2022-08-08T09:28:05.150Z,4.93
2022-08-08T09:30:39.654Z,5.50
2022-08-08T09:33:54.347Z,6.68
2022-08-08T09:35:59.068Z,7.20
2022-08-08T09:38:35.897Z,5.75
2022-08-08T09:42:14.929Z,6.40
2022-08-08T09:44:35.655Z,5.68
2022-08-08T09:47:25.280Z,5.20
2022-08-08T09:49:58.868Z,5.68
2022-08-08T09:52:58.388Z,5.72
2022-08-08T09:56:01.863Z,5.25
2022-08-08T09:58:26.047Z,6.03
2022-08-08T10:01:03.224Z,5.28
2022-08-08T10:03:43.627Z,5.28
2022-08-08T10:06:16.173Z,5.32
2022-08-08T10:08:46.732Z,4.90
2022-08-08T10:12:28.358Z,4.78
2022-08-08T10:14:10.819Z,5.97
2022-08-08T10:16:56.831Z,4.90
2022-08-08T10:19:46.242Z,5.03
2022-08-08T10:22:25.196Z,6.22
2022-08-08T10:25:01.428Z,6.55
2022-08-08T10:27:34.507Z,4.45
2022-08-08T10:30:07.439Z,6.85
2022-08-08T10:32:52.157Z,6.63
2022-08-08T10:36:09.201Z,6.65
2022-08-08T10:38:16.244Z,4.78
2022-08-08T10:40:46.725Z,6.13
2022-08-08T10:43:14.788Z,5.72
2022-08-08T10:45:55.700Z,4.47
2022-08-08T10:48:37.336Z,4.72
2022-08-08T10:51:14.071Z,5.63
2022-08-08T10:53:57.084Z,7.80
2022-08-08T10:56:32.192Z,6.00
2022-08-08T10:59:01.574Z,5.47
2022-08-08T11:01:33.348Z,5.00
2022-08-08T11:04:04.839Z,7.00
2022-08-08T11:06:35.163Z,6.35
2022-08-08T11:09:15.065Z,6.90
2022-08-08T11:12:04.539Z,7.93
2022-08-08T11:14:36.166Z,5.65
2022-08-08T11:17:07.707Z,8.48
2022-08-08T11:19:43.452Z,7.60
2022-08-08T11:22:16.273Z,4.75
2022-08-08T11:24:47.746Z,4.70
2022-08-08T11:27:23.362Z,5.00
2022-08-08T11:30:19.666Z,9.05
2022-08-08T11:32:48.453Z,5.75
2022-08-08T11:35:29.347Z,5.13
2022-08-08T11:38:35.355Z,7.65
2022-08-08T11:40:54.905Z,6.22
2022-08-08T11:43:25.983Z,7.15
2022-08-08T11:46:14.552Z,6.63
2022-08-08T11:48:48.977Z,5.82
2022-08-08T11:51:38.818Z,7.90
2022-08-08T11:54:26.628Z,5.72
2022-08-08T11:56:56.423Z,5.47
2022-08-08T11:59:58.400Z,9.13
2022-08-08T12:02:40.135Z,6.63
2022-08-08T12:05:13.318Z,5.30
2022-08-08T12:07:48.854Z,7.00
2022-08-08T12:10:20.856Z,5.40
2022-08-08T12:12:49.756Z,5.32
2022-08-08T12:15:42.593Z,4.90
2022-08-08T12:18:18.158Z,7.80
2022-08-08T12:20:53.200Z,5.00
2022-08-08T12:23:42.737Z,5.25
2022-08-08T12:26:27.273Z,5.55
2022-08-08T12:29:03.291Z,5.50
2022-08-08T12:31:38.945Z,5.55
2022-08-08T12:34:14.827Z,5.85
2022-08-08T12:36:49.276Z,6.78
2022-08-08T12:40:01.188Z,9.25
2022-08-08T12:42:20.808Z,8.52
2022-08-08T12:44:50.439Z,5.00
2022-08-08T12:47:57.748Z,6.38
2022-08-08T12:50:17.009Z,4.82
2022-08-08T12:52:54.606Z,9.10
2022-08-08T12:55:32.110Z,5.40
2022-08-08T12:58:15.889Z,5.40
2022-08-08T13:00:47.316Z,4.75
2022-08-08T13:03:27.928Z,4.95
2022-08-08T13:06:13.871Z,5.78
2022-08-08T13:08:53.499Z,9.48
2022-08-08T13:11:28.724Z,4.20
2022-08-08T13:14:15.539Z,5.57
2022-08-08T13:16:44.063Z,7.80
2022-08-08T13:19:17.911Z,5.53
2022-08-08T13:22:04.995Z,7.95
2022-08-08T13:24:47.834Z,6.45
2022-08-08T13:27:20.610Z,5.40
2022-08-08T13:29:51.500Z,9.07
2022-08-08T13:32:23.645Z,4.40
2022-08-08T13:34:56.315Z,6.65
2022-08-08T13:37:27.970Z,7.53
2022-08-08T13:40:18.122Z,5.78
2022-08-08T13:42:56.069Z,5.97
2022-08-08T13:45:26.300Z,5.22
2022-08-08T13:47:58.505Z,4.85
2022-08-08T13:50:35.590Z,4.50
2022-08-08T13:53:24.574Z,6.22
2022-08-08T13:56:05.164Z,4.95
2022-08-08T13:58:34.571Z,4.88
2022-08-08T14:01:13.649Z,7.05
2022-08-08T14:03:54.987Z,5.68
2022-08-08T14:06:33.206Z,4.82
2022-08-08T14:09:24.670Z,4.90
2022-08-08T14:11:52.302Z,9.05
2022-08-08T14:14:27.002Z,5.35
2022-08-08T14:16:55.501Z,5.28
2022-08-08T14:19:57.448Z,5.20
2022-08-08T14:22:25.624Z,5.72
2022-08-08T14:24:56.112Z,11.00
2022-08-08T14:27:30.544Z,5.35
2022-08-08T14:30:03.844Z,6.20
2022-08-08T14:32:47.825Z,10.27
2022-08-08T14:35:23.046Z,6.90
2022-08-08T14:37:57.232Z,4.88
2022-08-08T14:40:29.670Z,5.30
2022-08-08T14:43:01.472Z,4.97
2022-08-08T14:45:47.047Z,6.03
2022-08-08T14:48:34.805Z,8.00
2022-08-08T14:51:08.036Z,6.88
2022-08-08T14:53:54.499Z,5.35
2022-08-08T14:56:24.813Z,4.30
2022-08-08T14:58:55.165Z,5.70
2022-08-08T15:01:28.295Z,4.70
2022-08-08T15:04:10.399Z,5.85
2022-08-08T15:06:39.157Z,6.20
2022-08-08T15:09:11.323Z,5.57
2022-08-08T15:11:46.162Z,5.03
2022-08-08T15:14:26.488Z,6.13
2022-08-08T15:16:55.140Z,6.20
2022-08-08T15:19:28.107Z,5.07
2022-08-08T15:21:57.753Z,4.70
2022-08-08T15:24:31.387Z,10.35
2022-08-08T15:27:04.078Z,5.57
2022-08-08T15:29:49.533Z,4.25
2022-08-08T15:32:20.464Z,5.38
2022-08-08T15:34:51.054Z,8.55
2022-08-08T15:37:19.236Z,4.75
2022-08-08T15:39:47.963Z,6.88
2022-08-08T15:42:31.225Z,5.30
2022-08-08T15:45:02.608Z,4.78
2022-08-08T15:47:32.047Z,6.90
2022-08-08T15:50:00.374Z,5.43
2022-08-08T15:52:30.025Z,6.88
2022-08-08T15:55:01.267Z,5.13
2022-08-08T15:57:35.758Z,5.82
2022-08-08T16:00:27.341Z,9.32
2022-08-08T16:02:57.771Z,5.10
2022-08-08T16:05:35.545Z,6.88
2022-08-08T16:08:04.238Z,9.38
2022-08-08T16:13:07.815Z,6.65
2022-08-08T16:13:30.261Z,5.40
2022-08-08T16:16:13.306Z,7.10
2022-08-08T16:18:56.240Z,6.20
2022-08-08T16:21:27.983Z,5.85
2022-08-08T16:23:57.678Z,5.45
2022-08-08T16:26:34.479Z,6.03
2022-08-08T16:29:07.080Z,7.50
2022-08-08T16:31:42.109Z,7.18
2022-08-08T16:34:19.143Z,8.80
2022-08-08T16:36:49.501Z,6.57
2022-08-08T16:39:59.497Z,7.03
2022-08-08T16:42:06.951Z,4.53
2022-08-08T16:44:53.912Z,4.90
2022-08-08T16:47:39.881Z,5.35
2022-08-08T16:50:14.093Z,6.32
2022-08-08T16:55:04.692Z,5.78
2022-08-08T16:55:54.482Z,8.13
2022-08-08T16:58:21.066Z,6.68
2022-08-08T17:00:53.633Z,5.40
2022-08-08T17:03:24.767Z,5.90
2022-08-08T17:06:02.973Z,5.38
2022-08-08T17:08:30.916Z,4.93
2022-08-08T17:11:10.413Z,5.40
2022-08-08T17:13:40.920Z,6.97
2022-08-08T17:16:17.809Z,6.80
2022-08-08T17:18:51.669Z,6.22
2022-08-08T17:21:21.404Z,11.23
2022-08-08T17:23:58.231Z,5.03
2022-08-08T17:26:30.037Z,5.57
2022-08-08T17:28:58.661Z,8.52
2022-08-08T17:31:44.797Z,6.05
2022-08-08T17:34:37.750Z,5.00
2022-08-08T17:37:06.809Z,5.15
2022-08-08T17:40:04.297Z,5.35
2022-08-08T17:42:27.652Z,8.27
2022-08-08T17:44:57.554Z,11.07
2022-08-08T17:47:37.710Z,13.80
2022-08-08T17:50:12.082Z,8.35
2022-08-08T17:52:43.025Z,11.32
2022-08-08T17:56:04.147Z,8.15
2022-08-08T17:58:02.087Z,12.50
2022-08-08T18:00:31.222Z,6.97
2022-08-08T18:03:08.976Z,5.32
2022-08-08T18:05:48.294Z,5.57
2022-08-08T18:08:38.408Z,8.90
2022-08-08T18:11:06.461Z,5.80
2022-08-08T18:13:41.904Z,5.75
2022-08-08T18:16:11.331Z,5.80
2022-08-08T18:18:42.900Z,4.55
2022-08-08T18:21:35.630Z,7.40
2022-08-08T18:24:17.715Z,17.23
2022-08-08T18:26:54.367Z,10.38
2022-08-08T18:29:27.246Z,13.50
2022-08-08T18:31:58.602Z,5.72
2022-08-08T18:34:27.591Z,6.05
2022-08-08T18:36:57.294Z,5.10
2022-08-08T18:39:28.091Z,5.20
2022-08-08T18:42:03.311Z,7.90
2022-08-08T18:44:33.173Z,7.75
2022-08-08T18:47:03.849Z,7.07
2022-08-08T18:49:58.071Z,12.73
2022-08-08T18:52:22.570Z,6.78
2022-08-08T18:55:00.627Z,8.02
2022-08-08T18:57:40.758Z,7.30
2022-08-08T19:00:16.979Z,9.55
2022-08-08T19:02:56.827Z,5.97
2022-08-08T19:05:31.780Z,8.00
2022-08-08T19:08:10.117Z,7.28
2022-08-08T19:10:52.336Z,8.07
2022-08-08T19:13:24.250Z,9.02
2022-08-08T19:15:55.945Z,8.43
2022-08-08T19:18:32.343Z,6.32
2022-08-08T19:21:23.021Z,4.72
2022-08-08T19:24:00.439Z,6.57
2022-08-08T19:26:31.247Z,5.28
2022-08-08T19:28:59.947Z,5.15
2022-08-08T19:31:30.995Z,6.55
2022-08-08T19:34:04.847Z,9.73
2022-08-08T19:36:46.985Z,6.38
2022-08-08T19:39:17.458Z,5.45
2022-08-08T19:41:47.633Z,11.70
2022-08-08T19:44:26.771Z,8.73
2022-08-08T19:47:05.099Z,8.57
2022-08-08T19:49:36.702Z,7.55
2022-08-08T19:52:06.829Z,9.20
2022-08-08T19:54:36.291Z,7.10
2022-08-08T19:57:07.586Z,7.43
2022-08-08T19:59:35.913Z,8.88
2022-08-08T20:02:05.719Z,10.95
2022-08-08T20:04:34.081Z,8.95
2022-08-08T20:07:05.156Z,8.45
2022-08-08T20:09:55.378Z,10.77
2022-08-08T20:12:32.805Z,8.45
2022-08-08T20:15:09.792Z,8.82
2022-08-08T20:17:43.100Z,10.90
2022-08-08T20:20:19.007Z,10.55
2022-08-08T20:22:54.324Z,11.15
2022-08-08T20:25:29.585Z,11.07
2022-08-08T20:28:01.022Z,9.18
2022-08-08T20:30:53.644Z,9.10
2022-08-08T20:35:56.998Z,11.02
2022-08-08T20:38:29.075Z,8.93
2022-08-08T20:41:05.713Z,8.65
2022-08-08T20:43:49.460Z,8.15
2022-08-08T20:46:20.786Z,10.23
2022-08-08T20:48:51.300Z,8.43
2022-08-08T20:51:20.845Z,10.05
2022-08-08T20:53:59.204Z,11.07
2022-08-08T20:56:35.541Z,9.50
2022-08-08T20:59:05.873Z,9.05
2022-08-08T21:02:06.508Z,16.35
2022-08-08T21:04:27.655Z,10.30
2022-08-08T21:06:56.533Z,10.40
2022-08-08T21:09:31.619Z,12.02
2022-08-08T21:12:13.813Z,13.63
2022-08-08T21:14:49.048Z,10.35
2022-08-08T21:17:17.452Z,13.32
2022-08-08T21:19:47.524Z,9.43
2022-08-08T21:22:16.081Z,11.48
2022-08-08T21:24:52.674Z,10.13
2022-08-08T21:28:05.284Z,10.25
2022-08-08T21:30:18.610Z,12.10
2022-08-08T21:32:52.180Z,8.57
2022-08-08T21:36:14.716Z,12.68
2022-08-08T21:38:16.462Z,8.68
2022-08-08T21:40:55.691Z,7.65
2022-08-08T21:43:33.036Z,8.32
2022-08-08T21:48:01.729Z,8.23
2022-08-08T21:48:51.940Z,9.77
2022-08-08T21:54:17.119Z,7.40
2022-08-08T21:54:34.362Z,7.10
2022-08-08T21:56:59.304Z,6.70
2022-08-08T22:00:01.541Z,7.35
2022-08-08T22:02:20.553Z,7.80
2022-08-08T22:04:52.508Z,8.80
2022-08-08T22:07:20.709Z,11.48
2022-08-08T22:09:55.020Z,7.18
2022-08-08T22:12:22.932Z,7.45
2022-08-08T22:14:54.657Z,7.20
2022-08-08T22:17:22.597Z,6.05
2022-08-08T22:20:13.006Z,6.10
2022-08-08T22:22:39.093Z,6.47
2022-08-08T22:25:19.871Z,7.03
2022-08-08T22:28:03.512Z,7.07
2022-08-08T22:30:34.568Z,6.10
2022-08-08T22:33:03.391Z,6.10
2022-08-08T22:36:04.932Z,6.10
2022-08-08T22:38:48.305Z,5.53
2022-08-08T22:41:21.019Z,5.05
2022-08-08T22:44:03.003Z,6.95
2022-08-08T22:46:39.666Z,5.70
2022-08-08T22:49:09.104Z,6.10
2022-08-08T22:51:42.883Z,5.75
2022-08-08T22:54:32.638Z,6.53
2022-08-08T22:57:11.359Z,5.88
2022-08-08T22:59:48.403Z,6.35
2022-08-08T23:02:29.687Z,7.28
2022-08-08T23:05:04.831Z,5.85
2022-08-08T23:07:51.494Z,7.45
2022-08-08T23:10:25.530Z,7.05
2022-08-08T23:12:55.253Z,5.97
2022-08-08T23:16:39.241Z,7.72
2022-08-08T23:18:13.935Z,6.30
2022-08-08T23:20:43.833Z,8.15
2022-08-08T23:23:12.917Z,7.15
2022-08-08T23:25:47.882Z,9.73
2022-08-08T23:28:17.786Z,6.72
2022-08-08T23:30:46.872Z,7.57
2022-08-08T23:33:19.118Z,9.63
2022-08-08T23:36:07.591Z,9.32
2022-08-08T23:38:36.090Z,7.28
2022-08-08T23:41:12.047Z,6.18
2022-08-08T23:43:47.801Z,6.32
2022-08-08T23:49:00.922Z,6.43
2022-08-08T23:49:15.140Z,8.25
2022-08-08T23:52:06.904Z,7.97
2022-08-08T23:54:41.500Z,10.27
2022-08-08T23:57:20.970Z,7.63
